.
WxDataArchive / Data Records for 2009-10-16
2009-10-15 October 2009 2009-10-17

Data Records for Friday, 16 October 2009

Time	Temp	Chill	HIndex	Humid	Dewpt	 Wind 	HiWind	WindDir	Rain 	Barom 
-----	----	-----	------	-----	-----	------	------	-------	-----	----- 
00:00	38.6	38.6	38.6	90	35.9	0	3	135	0.00	29.979 
00:05	38.8	38.8	38.8	90	36.1	0	1	135	0.00	29.979 
00:10	38.8	38.8	38.8	90	36.1	0	2	135	0.00	29.979 
00:15	38.8	38.8	38.8	90	36.1	0	2	135	0.00	29.977 
00:20	38.8	38.8	38.8	90	36.1	1	3	45	0.00	29.977 
00:25	38.8	38.8	38.8	90	36.1	0	3	45	0.00	29.977 
00:30	38.8	38.8	38.8	89	35.8	0	2	68	0.00	29.976 
00:35	38.8	38.8	38.8	89	35.8	0	5	68	0.00	29.976 
00:40	38.9	38.9	38.9	89	35.9	0	2	68	0.00	29.976 
00:45	38.9	38.9	38.9	89	35.9	0	2	90	0.00	29.977 
00:50	38.9	38.9	38.9	89	35.9	0	2	90	0.00	29.977 
00:55	38.9	38.9	38.9	89	35.9	0	4	135	0.00	29.977 
01:00	38.9	38.9	38.9	89	35.9	0	1	135	0.00	29.976 
01:05	39.1	39.1	39.1	89	36.1	0	2	135	0.00	29.976 
01:10	39.1	39.1	39.1	89	36.1	0	3	135	0.00	29.976 
01:15	38.9	38.9	38.9	89	35.9	0	2	135	0.00	29.970 
01:20	38.9	38.9	38.9	89	35.9	0	3	68	0.00	29.970 
01:25	39.1	39.1	39.1	89	36.1	0	3	68	0.00	29.970 
01:30	38.9	38.9	38.9	89	35.9	1	4	112	0.00	29.969 
01:35	38.9	38.9	38.9	89	35.9	1	4	112	0.00	29.969 
01:40	38.9	38.9	38.9	89	35.9	1	3	90	0.00	29.969 
01:45	38.9	38.9	38.9	89	35.9	0	1	68	0.00	29.974 
01:50	38.9	38.9	38.9	89	35.9	0	2	68	0.00	29.974 
01:55	38.9	38.9	38.9	89	35.9	0	2	68	0.00	29.974 
02:00	38.9	38.9	38.9	89	35.9	0	3	68	0.00	29.976 
02:05	38.9	38.9	38.9	88	35.7	0	3	68	0.00	29.976 
02:10	38.8	38.8	38.8	88	35.6	0	2	68	0.00	29.976 
02:15	38.8	38.8	38.8	88	35.6	1	3	158	0.00	29.980 
02:20	38.8	38.8	38.8	88	35.6	0	3	135	0.00	29.980 
02:25	38.6	38.6	38.6	88	35.4	0	3	135	0.00	29.980 
02:30	38.6	38.6	38.6	88	35.4	0	3	135	0.00	29.984 
02:35	38.6	38.6	38.6	87	35.1	0	3	45	0.00	29.984 
02:40	38.5	38.5	38.5	87	35.0	0	1	112	0.00	29.984 
02:45	38.5	38.5	38.5	87	35.0	0	3	135	0.00	29.984 
02:50	38.3	38.3	38.3	87	34.8	1	4	45	0.00	29.984 
02:55	38.3	38.3	38.3	86	34.5	0	4	90	0.00	29.984 
03:00	38.3	38.3	38.3	87	34.8	0	1	112	0.00	29.986 
03:05	38.3	38.3	38.3	87	34.8	0	1	225	0.00	29.986 
03:10	38.2	38.2	38.2	86	34.4	1	5	135	0.00	29.986 
03:15	38.2	38.2	38.2	86	34.4	0	3	135	0.00	29.987 
03:20	38.0	38.0	38.0	86	34.2	1	5	45	0.00	29.987 
03:25	38.0	38.0	38.0	86	34.2	0	3	112	0.00	29.987 
03:30	37.9	37.9	37.9	86	34.1	1	5	135	0.00	29.988 
03:35	37.9	37.9	37.9	85	33.8	0	2	135	0.00	29.988 
03:40	37.8	37.8	37.8	85	33.7	0	1	135	0.00	29.988 
03:45	37.8	37.8	37.8	85	33.7	0	2	45	0.00	29.984 
03:50	37.6	37.6	37.6	85	33.5	0	1	45	0.00	29.984 
03:55	37.6	37.6	37.6	84	33.2	0	1	45	0.00	29.984 
04:00	37.6	37.6	37.6	84	33.2	0	1	45	0.00	29.975 
04:05	37.5	37.5	37.5	84	33.1	0	1	45	0.00	29.975 
04:10	37.3	37.3	37.3	84	32.9	0	2	45	0.00	29.975 
04:15	37.3	37.3	37.3	83	32.6	0	2	158	0.00	29.979 
04:20	37.3	37.3	37.3	83	32.6	0	1	158	0.00	29.979 
04:25	37.2	37.2	37.2	82	32.2	0	1	158	0.00	29.979 
04:30	37.2	37.2	37.2	82	32.2	0	1	158	0.00	29.976 
04:35	37.0	37.0	37.0	81	31.7	0	1	180	0.00	29.976 
04:40	37.0	37.0	37.0	81	31.7	0	1	180	0.00	29.976 
04:45	37.0	37.0	37.0	80	31.4	1	5	135	0.00	29.978 
04:50	36.9	36.9	36.9	79	31.0	0	5	135	0.00	29.978 
04:55	36.9	36.9	36.9	79	31.0	0	4	68	0.00	29.978 
05:00	36.9	36.9	36.9	79	31.0	0	3	112	0.00	29.987 
05:05	36.9	36.9	36.9	78	30.7	0	3	112	0.00	29.987 
05:10	36.9	36.9	36.9	78	30.7	0	2	45	0.00	29.987 
05:15	36.9	36.9	36.9	77	30.4	0	1	45	0.00	29.993 
05:20	36.9	36.9	36.9	77	30.4	1	4	68	0.00	29.993 
05:25	36.9	36.9	36.9	76	30.1	0	5	68	0.00	29.993 
05:30	36.9	36.9	36.9	77	30.4	0	3	68	0.00	29.993 
05:35	36.9	36.9	36.9	77	30.4	0	3	68	0.00	29.993 
05:40	36.9	36.9	36.9	77	30.4	0	3	135	0.00	29.993 
05:45	37.0	37.0	37.0	77	30.5	0	0	---	0.00	29.995 
05:50	36.9	36.9	36.9	77	30.4	0	0	---	0.00	29.995 
05:55	36.9	36.9	36.9	77	30.4	0	1	135	0.00	29.995 
06:00	36.9	36.9	36.9	77	30.4	0	1	135	0.00	29.995 
06:05	36.9	36.9	36.9	77	30.4	0	0	---	0.00	29.995 
06:10	36.9	36.9	36.9	77	30.4	0	4	180	0.00	29.995 
06:15	36.9	36.9	36.9	78	30.7	0	1	180	0.00	29.998 
06:20	36.9	36.9	36.9	78	30.7	0	3	180	0.00	29.998 
06:25	36.9	36.9	36.9	77	30.4	0	1	180	0.00	29.998 
06:30	36.9	36.9	36.9	77	30.4	0	2	180	0.00	30.008 
06:35	36.9	36.9	36.9	77	30.4	0	2	180	0.00	30.008 
06:40	36.9	36.9	36.9	77	30.4	0	2	180	0.00	30.008 
06:45	36.8	36.8	36.8	77	30.3	0	1	158	0.00	30.009 
06:50	36.8	36.8	36.8	77	30.3	0	2	202	0.00	30.009 
06:55	36.8	36.8	36.8	77	30.3	0	3	90	0.00	30.009 
07:00	36.8	36.8	36.8	77	30.3	0	2	112	0.00	30.015 
07:05	36.8	36.8	36.8	77	30.3	0	2	112	0.00	30.015 
07:10	36.8	36.8	36.8	77	30.3	0	1	112	0.00	30.015 
07:15	36.8	36.8	36.8	77	30.3	0	1	112	0.00	30.015 
07:20	36.8	36.8	36.8	77	30.3	0	1	112	0.00	30.015 
07:25	36.8	36.8	36.8	77	30.3	0	2	112	0.00	30.015 
07:30	36.8	36.8	36.8	78	30.6	0	4	112	0.00	30.019 
07:35	36.8	36.8	36.8	77	30.3	0	2	112	0.00	30.019 
07:40	36.8	36.8	36.8	78	30.6	0	1	112	0.00	30.019 
07:45	36.8	36.8	36.8	78	30.6	0	0	---	0.00	30.024 
07:50	36.8	36.8	36.8	79	30.9	0	1	112	0.00	30.024 
07:55	36.6	36.6	36.6	79	30.7	0	1	112	0.00	30.024 
08:00	36.6	36.6	36.6	79	30.7	0	1	112	0.00	30.026 
08:05	36.6	36.6	36.6	80	31.0	0	0	---	0.00	30.026 
08:10	36.6	36.6	36.6	80	31.0	0	1	112	0.00	30.026 
08:15	36.6	36.6	36.6	80	31.0	0	3	112	0.00	30.034 
08:20	36.6	36.6	36.6	80	31.0	0	1	112	0.00	30.034 
08:25	36.8	36.8	36.8	80	31.2	0	1	112	0.00	30.034 
08:30	36.8	36.8	36.8	80	31.2	0	2	112	0.00	30.042 
08:35	36.9	36.9	36.9	80	31.3	0	0	---	0.00	30.042 
08:40	36.9	36.9	36.9	80	31.3	0	0	---	0.00	30.042 
08:45	37.0	37.0	37.0	81	31.7	0	0	---	0.00	30.044 
08:50	37.2	37.2	37.2	80	31.6	0	1	135	0.00	30.044 
08:55	37.2	37.2	37.2	80	31.6	0	1	135	0.00	30.044 
09:00	37.2	37.2	37.2	80	31.6	0	0	---	0.00	30.045 
09:05	37.3	37.3	37.3	80	31.7	0	1	22	0.00	30.045 
09:10	37.5	37.5	37.5	80	31.9	0	0	---	0.00	30.045 
09:15	37.5	37.5	37.5	80	31.9	0	2	0	0.00	30.052 
09:20	37.5	37.5	37.5	79	31.6	0	1	0	0.00	30.052 
09:25	37.6	37.6	37.6	78	31.4	0	1	338	0.00	30.052 
09:30	37.6	37.6	37.6	78	31.4	0	1	135	0.00	30.056 
09:35	37.8	37.8	37.8	78	31.6	0	2	292	0.00	30.056 
09:40	37.8	37.8	37.8	78	31.6	0	1	292	0.00	30.056 
09:45	37.8	37.8	37.8	77	31.2	0	2	135	0.00	30.059 
09:50	37.9	37.9	37.9	77	31.3	0	2	292	0.00	30.059 
09:55	37.9	37.9	37.9	76	31.0	0	2	338	0.00	30.059 
10:00	38.0	38.0	38.0	77	31.4	0	2	338	0.00	30.065 
10:05	38.2	38.2	38.2	78	32.0	0	3	158	0.00	30.065 
10:10	38.3	38.3	38.3	77	31.7	0	2	135	0.00	30.065 
10:15	38.3	38.3	38.3	77	31.7	0	2	22	0.00	30.071 
10:20	38.5	38.5	38.5	77	31.9	0	6	90	0.00	30.071 
10:25	38.5	38.5	38.5	77	31.9	0	2	90	0.00	30.071 
10:30	38.6	38.6	38.6	77	32.0	1	5	135	0.00	30.069 
10:35	38.8	38.8	38.8	77	32.2	1	4	90	0.00	30.069 
10:40	38.9	38.9	38.9	77	32.3	0	2	90	0.00	30.069 
10:45	39.2	39.2	39.2	77	32.6	0	3	180	0.00	30.072 
10:50	39.3	39.3	39.3	77	32.7	0	2	180	0.00	30.072 
10:55	39.3	39.3	39.3	76	32.4	0	2	180	0.00	30.072 
11:00	39.5	39.5	39.5	75	32.2	1	4	68	0.00	30.076 
11:05	39.6	39.6	39.6	76	32.7	0	2	68	0.00	30.076 
11:10	39.6	39.6	39.6	75	32.3	0	3	112	0.00	30.076 
11:15	39.8	39.8	39.8	75	32.5	0	6	270	0.00	30.074 
11:20	39.8	39.8	39.8	74	32.2	1	3	22	0.00	30.074 
11:25	39.9	39.9	39.9	74	32.3	0	2	45	0.00	30.074 
11:30	40.1	40.1	40.1	74	32.5	1	5	112	0.00	30.076 
11:35	40.1	40.1	40.1	73	32.2	1	4	135	0.00	30.076 
11:40	40.3	40.3	40.3	74	32.7	0	2	90	0.00	30.076 
11:45	40.3	40.3	40.3	72	32.0	0	5	90	0.00	30.080 
11:50	40.5	40.5	40.5	72	32.2	0	2	90	0.00	30.080 
11:55	40.3	40.3	40.3	71	31.7	1	4	135	0.00	30.080 
12:00	40.5	40.5	40.5	71	31.8	0	5	135	0.00	30.082 
12:05	40.5	40.5	40.5	71	31.8	0	3	135	0.00	30.082 
12:10	40.6	40.6	40.6	71	31.9	0	2	135	0.00	30.082 
12:15	40.6	40.6	40.6	69	31.2	0	5	135	0.00	30.082 
12:20	40.8	40.8	40.8	70	31.8	1	5	90	0.00	30.082 
12:25	40.8	40.8	40.8	70	31.8	1	4	135	0.00	30.082 
12:30	40.9	40.9	40.9	70	31.9	0	4	112	0.00	30.084 
12:35	40.9	40.9	40.9	69	31.5	1	4	112	0.00	30.084 
12:40	41.1	41.1	41.1	69	31.7	1	3	112	0.00	30.084 
12:45	41.2	41.2	41.2	68	31.5	1	3	135	0.00	30.080 
12:50	41.3	41.3	41.3	67	31.2	1	4	112	0.00	30.080 
12:55	41.5	41.5	41.5	68	31.7	1	5	90	0.00	30.080 
13:00	41.5	41.5	41.5	65	30.6	1	7	90	0.00	30.076 
13:05	41.6	41.6	41.6	66	31.1	0	3	68	0.00	30.076 
13:10	41.8	41.8	41.8	64	30.5	1	6	112	0.00	30.076 
13:15	41.9	41.9	41.9	64	30.6	1	4	135	0.00	30.074 
13:20	42.2	42.2	42.2	63	30.5	1	6	90	0.00	30.074 
13:25	42.3	42.3	42.3	63	30.6	1	5	135	0.00	30.074 
13:30	42.6	42.6	42.6	62	30.5	2	6	90	0.00	30.072 
13:35	42.8	42.8	42.8	61	30.3	2	6	90	0.00	30.072 
13:40	42.8	42.8	42.8	61	30.3	1	3	248	0.00	30.072 
13:45	42.9	42.9	42.9	61	30.4	1	3	135	0.00	30.071 
13:50	43.3	43.3	43.3	61	30.8	1	3	135	0.00	30.071 
13:55	43.3	43.3	43.3	58	29.5	1	4	135	0.00	30.071 
14:00	43.5	43.5	43.5	58	29.7	1	4	135	0.00	30.070 
14:05	43.5	43.5	43.5	59	30.1	1	6	90	0.00	30.070 
14:10	43.6	43.6	43.6	58	29.8	0	4	112	0.00	30.070 
14:15	43.8	43.8	43.8	58	30.0	1	5	112	0.00	30.070 
14:20	43.8	43.8	43.8	56	29.1	1	6	158	0.00	30.070 
14:25	43.8	43.8	43.8	58	30.0	1	5	135	0.00	30.070 
14:30	43.9	43.9	43.9	58	30.1	0	6	45	0.00	30.068 
14:35	44.1	44.1	44.1	58	30.3	2	5	90	0.00	30.068 
14:40	44.1	44.1	44.1	58	30.3	1	4	90	0.00	30.068 
14:45	44.3	44.3	44.3	59	30.9	1	3	112	0.00	30.066 
14:50	44.5	44.5	44.5	58	30.7	0	2	112	0.00	30.066 
14:55	44.6	44.6	44.6	59	31.2	1	3	112	0.00	30.066 
15:00	44.9	44.9	44.9	59	31.5	1	3	112	0.00	30.063 
15:05	45.1	45.1	45.1	58	31.2	1	3	68	0.00	30.063 
15:10	45.2	45.2	45.2	58	31.3	1	2	90	0.00	30.063 
15:15	45.2	45.2	45.2	58	31.3	0	3	135	0.00	30.058 
15:20	45.4	45.4	45.4	58	31.5	0	3	112	0.00	30.058 
15:25	45.4	45.4	45.4	57	31.1	0	2	135	0.00	30.058 
15:30	45.7	45.7	45.7	59	32.2	1	4	135	0.00	30.053 
15:35	45.7	45.7	45.7	58	31.8	1	3	90	0.00	30.053 
15:40	45.7	45.7	45.7	59	32.2	1	3	90	0.00	30.053 
15:45	45.5	45.5	45.5	55	30.3	0	3	45	0.00	30.055 
15:50	45.1	45.1	45.1	54	29.5	1	5	270	0.00	30.055 
15:55	44.9	44.9	44.9	54	29.3	0	3	45	0.00	30.055 
16:00	44.9	44.9	44.9	57	30.6	1	4	45	0.00	30.059 
16:05	44.9	44.9	44.9	54	29.3	0	2	270	0.00	30.059 
16:10	45.1	45.1	45.1	56	30.4	1	4	45	0.00	30.059 
16:15	45.2	45.2	45.2	54	29.6	1	4	135	0.00	30.066 
16:20	45.1	45.1	45.1	54	29.5	1	4	135	0.00	30.066 
16:25	45.1	45.1	45.1	54	29.5	1	4	135	0.00	30.066 
16:30	45.2	45.2	45.2	56	30.4	1	4	112	0.00	30.067 
16:35	45.2	45.2	45.2	57	30.9	0	2	135	0.00	30.067 
16:40	45.2	45.2	45.2	55	30.0	1	3	68	0.00	30.067 
16:45	45.4	45.4	45.4	56	30.6	1	3	90	0.00	30.068 
16:50	45.4	45.4	45.4	55	30.2	0	4	68	0.00	30.068 
16:55	45.4	45.4	45.4	56	30.6	2	6	158	0.00	30.068 
17:00	45.2	45.2	45.2	56	30.4	1	4	90	0.00	30.070 
17:05	45.1	45.1	45.1	54	29.5	1	4	45	0.00	30.070 
17:10	44.9	44.9	44.9	55	29.7	1	4	90	0.00	30.070 
17:15	44.8	44.8	44.8	57	30.5	0	2	158	0.00	30.072 
17:20	44.6	44.6	44.6	56	29.9	1	3	158	0.00	30.072 
17:25	44.5	44.5	44.5	57	30.2	1	4	135	0.00	30.072 
17:30	44.3	44.3	44.3	56	29.6	0	3	90	0.00	30.077 
17:35	44.3	44.3	44.3	58	30.5	0	1	90	0.00	30.077 
17:40	44.2	44.2	44.2	58	30.4	0	4	90	0.00	30.077 
17:45	44.1	44.1	44.1	58	30.3	0	3	90	0.00	30.083 
17:50	43.9	43.9	43.9	58	30.1	0	2	90	0.00	30.083 
17:55	43.8	43.8	43.8	58	30.0	0	1	90	0.00	30.083 
18:00	43.6	43.6	43.6	60	30.6	0	2	112	0.00	30.087 
18:05	43.6	43.6	43.6	61	31.0	0	0	---	0.00	30.087 
18:10	43.5	43.5	43.5	61	31.0	0	1	112	0.00	30.087 
18:15	43.3	43.3	43.3	61	30.8	0	0	---	0.00	30.088 
18:20	43.3	43.3	43.3	62	31.2	0	0	---	0.00	30.088 
18:25	43.2	43.2	43.2	62	31.1	0	0	---	0.00	30.088 
18:30	43.1	43.1	43.1	62	31.0	0	0	---	0.00	30.089 
18:35	43.1	43.1	43.1	62	31.0	0	0	---	0.00	30.089 
18:40	43.1	43.1	43.1	61	30.6	0	1	112	0.00	30.089 
18:45	43.1	43.1	43.1	62	31.0	0	0	---	0.00	30.094 
18:50	42.9	42.9	42.9	62	30.8	0	1	112	0.00	30.094 
18:55	42.9	42.9	42.9	62	30.8	0	0	---	0.00	30.094 
19:00	42.9	42.9	42.9	62	30.8	0	0	---	0.00	30.101 
19:05	42.8	42.8	42.8	62	30.7	0	0	---	0.00	30.101 
19:10	42.8	42.8	42.8	62	30.7	0	0	---	0.00	30.101 
19:15	42.6	42.6	42.6	63	30.9	0	1	112	0.00	30.104 
19:20	42.5	42.5	42.5	63	30.8	0	1	112	0.00	30.104 
19:25	42.5	42.5	42.5	63	30.8	0	0	---	0.00	30.104 
19:30	42.3	42.3	42.3	64	31.0	0	0	---	0.00	30.113 
19:35	42.3	42.3	42.3	64	31.0	0	1	112	0.00	30.113 
19:40	42.2	42.2	42.2	65	31.3	0	1	112	0.00	30.113 
19:45	42.1	42.1	42.1	65	31.2	0	1	112	0.00	30.119 
19:50	41.9	41.9	41.9	66	31.4	0	1	112	0.00	30.119 
19:55	41.9	41.9	41.9	66	31.4	0	1	112	0.00	30.119 
20:00	41.8	41.8	41.8	66	31.3	0	1	112	0.00	30.123 
20:05	41.6	41.6	41.6	66	31.1	0	1	112	0.00	30.123 
20:10	41.6	41.6	41.6	67	31.5	0	1	112	0.00	30.123 
20:15	41.5	41.5	41.5	67	31.4	0	0	---	0.00	30.129 
20:20	41.5	41.5	41.5	67	31.4	0	1	112	0.00	30.129 
20:25	41.5	41.5	41.5	68	31.7	0	0	---	0.00	30.129 
20:30	41.3	41.3	41.3	68	31.5	0	0	---	0.00	30.134 
20:35	41.3	41.3	41.3	68	31.5	0	1	112	0.00	30.134 
20:40	41.3	41.3	41.3	68	31.5	0	1	112	0.00	30.134 
20:45	41.3	41.3	41.3	68	31.5	0	0	---	0.00	30.135 
20:50	41.2	41.2	41.2	69	31.8	0	0	---	0.00	30.135 
20:55	41.2	41.2	41.2	69	31.8	0	0	---	0.00	30.135 
21:00	41.1	41.1	41.1	70	32.1	0	0	---	0.00	30.138 
21:05	41.1	41.1	41.1	70	32.1	0	0	---	0.00	30.138 
21:10	40.9	40.9	40.9	71	32.2	0	0	---	0.00	30.138 
21:15	40.9	40.9	40.9	70	31.9	0	1	112	0.00	30.143 
21:20	40.9	40.9	40.9	70	31.9	0	0	---	0.00	30.143 
21:25	40.9	40.9	40.9	70	31.9	0	0	---	0.00	30.143 
21:30	40.9	40.9	40.9	71	32.2	0	0	---	0.00	30.149 
21:35	40.9	40.9	40.9	71	32.2	0	0	---	0.00	30.149 
21:40	40.9	40.9	40.9	70	31.9	0	2	112	0.00	30.149 
21:45	40.9	40.9	40.9	70	31.9	0	1	112	0.00	30.151 
21:50	41.1	41.1	41.1	70	32.1	0	0	---	0.00	30.151 
21:55	41.1	41.1	41.1	70	32.1	0	1	112	0.00	30.151 
22:00	41.1	41.1	41.1	69	31.7	0	0	---	0.00	30.151 
22:05	41.1	41.1	41.1	70	32.1	0	0	---	0.00	30.151 
22:10	40.9	40.9	40.9	70	31.9	0	0	---	0.00	30.151 
22:15	40.9	40.9	40.9	70	31.9	0	0	---	0.00	30.150 
22:20	40.9	40.9	40.9	70	31.9	0	0	---	0.00	30.150 
22:25	40.9	40.9	40.9	69	31.5	0	0	---	0.00	30.150 
22:30	40.9	40.9	40.9	69	31.5	0	0	---	0.00	30.151 
22:35	40.9	40.9	40.9	69	31.5	0	0	---	0.00	30.151 
22:40	41.1	41.1	41.1	70	32.1	0	1	112	0.00	30.151 
22:45	40.9	40.9	40.9	69	31.5	0	0	---	0.00	30.154 
22:50	40.9	40.9	40.9	70	31.9	0	0	---	0.00	30.154 
22:55	40.8	40.8	40.8	70	31.8	0	0	---	0.00	30.154 
23:00	40.8	40.8	40.8	71	32.1	0	0	---	0.00	30.159 
23:05	40.6	40.6	40.6	70	31.6	0	1	112	0.00	30.159 
23:10	40.6	40.6	40.6	71	31.9	0	0	---	0.00	30.159 
23:15	40.5	40.5	40.5	71	31.8	0	0	---	0.00	30.161 
23:20	40.5	40.5	40.5	72	32.2	0	0	---	0.00	30.161 
23:25	40.3	40.3	40.3	72	32.0	0	0	---	0.00	30.161 
23:30	40.3	40.3	40.3	72	32.0	0	0	---	0.00	30.163 
23:35	40.3	40.3	40.3	73	32.3	0	1	112	0.00	30.163 
23:40	40.2	40.2	40.2	73	32.2	0	0	---	0.00	30.163 
23:45	40.2	40.2	40.2	73	32.2	0	0	---	0.00	30.160 
23:50	40.1	40.1	40.1	73	32.2	0	0	---	0.00	30.160 
23:55	40.1	40.1	40.1	73	32.2	0	0	---	0.00	30.160 

CoCoRaHS
IN-AL-39
A2 Web Hosting
Creative Commons License
GoDaddy
search engine by freefind advanced

loaded 2018-11-13 17:04:14 • last modified 2010-11-18 10:43:29
Privacy PolicyDisclaimer
• wx.awcolley.com is powered by PmWiki v.2002016 •
• all content (unless otherwise noted) © 2018 A W Colley